createdAt,value
2023-04-17T00:01:01.288Z,102253.84
2023-04-17T00:03:31.904Z,102241.91
2023-04-17T00:05:59.923Z,102224.63
2023-04-17T00:08:27.638Z,102187.88
2023-04-17T00:11:06.393Z,102197.34
2023-04-17T00:13:36.694Z,102208.69
2023-04-17T00:16:04.486Z,102180.72
2023-04-17T00:18:32.233Z,102153.47
2023-04-17T00:20:59.971Z,102172.47
2023-04-17T00:23:27.698Z,102179.09
2023-04-17T00:25:55.434Z,102154.31
2023-04-17T00:28:23.405Z,102117.22
2023-04-17T00:30:52.493Z,102103.75
2023-04-17T00:33:20.239Z,102117.00
2023-04-17T00:35:47.994Z,102121.09
2023-04-17T00:38:15.798Z,102142.72
2023-04-17T00:40:45.342Z,102144.91
2023-04-17T00:43:13.159Z,102138.41
2023-04-17T00:45:41.400Z,102130.53
2023-04-17T00:48:13.205Z,102131.06
2023-04-17T00:50:40.972Z,102160.81
2023-04-17T00:53:08.773Z,102175.97
2023-04-17T00:55:38.805Z,102184.31
2023-04-17T00:58:07.094Z,102171.91
2023-04-17T01:00:36.060Z,102165.97
2023-04-17T01:03:04.425Z,102162.63
2023-04-17T01:05:35.480Z,102186.91
2023-04-17T01:08:03.382Z,102172.19
2023-04-17T01:10:31.167Z,102179.56
2023-04-17T01:13:09.083Z,102169.16
2023-04-17T01:15:37.340Z,102184.94
2023-04-17T01:18:06.150Z,102196.69
2023-04-17T01:20:35.730Z,102197.97
2023-04-17T01:23:03.888Z,102173.25
2023-04-17T01:25:33.211Z,102179.25
2023-04-17T01:28:00.955Z,102176.13
2023-04-17T01:30:28.656Z,102185.13
2023-04-17T01:32:56.538Z,102154.19
2023-04-17T01:35:24.312Z,102173.06
2023-04-17T01:37:52.237Z,102165.34
2023-04-17T01:40:20.034Z,102157.69
2023-04-17T01:42:49.657Z,102179.59
2023-04-17T01:45:17.418Z,102179.41
2023-04-17T01:47:45.489Z,102156.84
2023-04-17T01:50:14.189Z,102151.16
2023-04-17T01:52:41.912Z,102127.84
2023-04-17T01:55:10.464Z,102141.16
2023-04-17T01:57:38.174Z,102130.88
2023-04-17T02:00:09.227Z,102128.91
2023-04-17T02:02:37.088Z,102121.44
2023-04-17T02:05:05.126Z,102122.66
2023-04-17T02:07:32.852Z,102140.16
2023-04-17T02:10:00.556Z,102144.75
2023-04-17T02:12:28.402Z,102158.94
2023-04-17T02:15:00.852Z,102150.28
2023-04-17T02:17:30.070Z,102158.78
2023-04-17T02:19:57.807Z,102150.59
2023-04-17T02:22:25.501Z,102150.41
2023-04-17T02:24:53.185Z,102134.38
2023-04-17T02:27:20.876Z,102139.66
2023-04-17T02:29:48.611Z,102157.59
2023-04-17T02:32:16.655Z,102155.16
2023-04-17T02:34:45.875Z,102154.22
2023-04-17T02:37:13.617Z,102146.41
2023-04-17T02:39:41.356Z,102136.16
2023-04-17T02:42:10.203Z,102100.84
2023-04-17T02:44:37.954Z,102074.84
2023-04-17T02:47:05.709Z,102068.97
2023-04-17T02:49:33.493Z,102057.28
2023-04-17T02:52:02.570Z,102052.13
2023-04-17T02:54:30.306Z,102058.34
2023-04-17T02:56:58.544Z,102058.78
2023-04-17T02:59:26.410Z,102079.09
2023-04-17T03:01:54.200Z,102088.56
2023-04-17T03:04:22.070Z,102090.06
2023-04-17T03:06:49.802Z,102091.69
2023-04-17T03:09:20.871Z,102086.34
2023-04-17T03:11:48.593Z,102088.91
2023-04-17T03:14:16.428Z,102092.31
2023-04-17T03:16:44.214Z,102048.25
2023-04-17T03:19:12.284Z,102045.28
2023-04-17T03:21:40.328Z,102057.28
2023-04-17T03:24:08.582Z,102069.66
2023-04-17T03:26:37.665Z,102033.75
2023-04-17T03:29:05.427Z,101995.50
2023-04-17T03:31:33.170Z,101994.47
2023-04-17T03:34:00.884Z,102003.72
2023-04-17T03:36:28.603Z,102021.09
2023-04-17T03:38:57.760Z,102011.16
2023-04-17T03:41:25.543Z,102014.78
2023-04-17T03:43:54.669Z,102033.91
2023-04-17T03:46:22.715Z,102046.09
2023-04-17T03:48:50.538Z,102052.09
2023-04-17T03:51:18.283Z,102071.38
2023-04-17T03:53:45.985Z,102062.78
2023-04-17T03:56:13.802Z,102079.53
2023-04-17T03:58:41.522Z,102085.56
2023-04-17T04:01:12.544Z,102101.41
2023-04-17T04:03:40.687Z,102114.28
2023-04-17T04:06:08.764Z,102097.53
2023-04-17T04:08:36.527Z,102109.50
2023-04-17T04:11:04.300Z,102078.78
2023-04-17T04:13:31.985Z,102082.63
2023-04-17T04:15:59.718Z,102068.56
2023-04-17T04:18:30.578Z,102069.88
2023-04-17T04:20:58.297Z,102084.25
2023-04-17T04:23:28.060Z,102087.84
2023-04-17T04:25:57.023Z,102101.78
2023-04-17T04:28:28.156Z,102121.34
2023-04-17T04:30:58.685Z,102111.63
2023-04-17T04:33:29.458Z,102109.75
2023-04-17T04:36:00.913Z,102116.13
2023-04-17T04:38:31.278Z,102113.63
2023-04-17T04:41:06.099Z,102113.28
2023-04-17T04:43:34.795Z,102128.88
2023-04-17T04:46:02.567Z,102131.63
2023-04-17T04:48:31.684Z,102136.06
2023-04-17T04:50:59.551Z,102147.31
2023-04-17T04:53:27.286Z,102129.41
2023-04-17T04:55:54.986Z,102132.34
2023-04-17T04:58:22.680Z,102138.50
2023-04-17T05:00:50.565Z,102145.88
2023-04-17T05:03:19.009Z,102149.19
2023-04-17T05:05:48.246Z,102166.25
2023-04-17T05:08:15.958Z,102166.31
2023-04-17T05:10:44.688Z,102173.88
2023-04-17T05:13:12.413Z,102192.75
2023-04-17T05:15:41.331Z,102203.72
2023-04-17T05:18:09.129Z,102224.34
2023-04-17T05:20:37.696Z,102243.53
2023-04-17T05:23:07.077Z,102239.06
2023-04-17T05:25:34.791Z,102277.78
2023-04-17T05:28:02.522Z,102265.41
2023-04-17T05:30:30.358Z,102274.50
2023-04-17T05:32:59.167Z,102299.84
2023-04-17T05:35:27.200Z,102334.97
2023-04-17T05:37:55.734Z,102350.63
2023-04-17T05:40:24.845Z,102358.94
2023-04-17T05:42:52.547Z,102382.44
2023-04-17T05:45:21.396Z,102379.88
2023-04-17T05:47:49.947Z,102379.31
2023-04-17T05:50:17.658Z,102385.63
2023-04-17T05:52:48.242Z,102416.78
2023-04-17T05:55:15.975Z,102430.00
2023-04-17T05:57:45.081Z,102439.59
2023-04-17T06:00:13.941Z,102457.78
2023-04-17T06:02:43.143Z,102450.25
2023-04-17T06:05:11.504Z,102437.03
2023-04-17T06:07:40.346Z,102443.63
2023-04-17T06:10:09.191Z,102452.69
2023-04-17T06:12:37.552Z,102449.69
2023-04-17T06:15:09.104Z,102469.06
2023-04-17T06:17:37.474Z,102454.88
2023-04-17T06:20:09.867Z,102459.34
2023-04-17T06:22:37.873Z,102461.59
2023-04-17T06:25:06.632Z,102435.13
2023-04-17T06:27:36.770Z,102434.38
2023-04-17T06:30:07.665Z,102430.88
2023-04-17T06:32:35.501Z,102460.16
2023-04-17T06:35:03.266Z,102468.84
2023-04-17T06:37:31.111Z,102467.81
2023-04-17T06:39:58.853Z,102459.03
2023-04-17T06:42:26.618Z,102456.25
2023-04-17T06:44:54.499Z,102478.47
2023-04-17T06:47:23.609Z,102476.72
2023-04-17T06:49:51.315Z,102500.00
2023-04-17T06:52:20.205Z,102511.63
2023-04-17T06:54:47.924Z,102513.13
2023-04-17T06:57:16.865Z,102545.47
2023-04-17T06:59:44.635Z,102552.16
2023-04-17T07:02:12.449Z,102541.34
2023-04-17T07:04:41.898Z,102543.38
2023-04-17T07:07:09.700Z,102565.50
2023-04-17T07:09:37.426Z,102578.28
2023-04-17T07:12:05.483Z,102580.53
2023-04-17T07:14:33.550Z,102605.06
2023-04-17T07:17:01.315Z,102606.22
2023-04-17T07:19:29.132Z,102618.91
2023-04-17T07:21:58.206Z,102625.88
2023-04-17T07:24:26.125Z,102644.03
2023-04-17T07:26:53.905Z,102648.22
2023-04-17T07:29:21.599Z,102664.28
2023-04-17T07:31:49.392Z,102658.69
2023-04-17T07:34:17.086Z,102654.75
2023-04-17T07:36:45.151Z,102664.44
2023-04-17T07:39:14.411Z,102667.66
2023-04-17T07:41:42.263Z,102674.47
2023-04-17T07:44:09.996Z,102677.66
2023-04-17T07:46:37.767Z,102678.53
2023-04-17T07:49:05.545Z,102678.72
2023-04-17T07:51:33.277Z,102682.84
2023-04-17T07:54:01.405Z,102685.88
2023-04-17T07:56:31.827Z,102676.81
2023-04-17T07:59:00.078Z,102691.09
2023-04-17T08:01:27.969Z,102679.16
2023-04-17T08:03:55.991Z,102684.03
2023-04-17T08:06:23.900Z,102686.47
2023-04-17T08:08:52.065Z,102691.19
2023-04-17T08:11:19.791Z,102690.22
2023-04-17T08:13:48.881Z,102687.47
2023-04-17T08:16:17.025Z,102692.63
2023-04-17T08:18:44.734Z,102692.91
2023-04-17T08:21:12.469Z,102700.38
2023-04-17T08:23:40.819Z,102695.56
2023-04-17T08:26:08.748Z,102695.59
2023-04-17T08:28:36.499Z,102693.97
2023-04-17T08:31:05.843Z,102695.81
2023-04-17T08:33:33.608Z,102706.63
2023-04-17T08:36:03.011Z,102703.16
2023-04-17T08:38:32.113Z,102709.31
2023-04-17T08:41:05.630Z,102699.34
2023-04-17T08:43:36.846Z,102712.72
2023-04-17T08:46:07.537Z,102707.53
2023-04-17T08:48:35.420Z,102702.34
2023-04-17T08:51:03.513Z,102712.97
2023-04-17T08:53:31.264Z,102712.25
2023-04-17T08:56:06.861Z,102711.91
2023-04-17T08:58:37.301Z,102701.28
2023-04-17T09:01:15.809Z,102713.47
2023-04-17T09:03:45.620Z,102710.72
2023-04-17T09:06:14.790Z,102705.00
2023-04-17T09:08:56.481Z,102710.50
2023-04-17T09:11:24.392Z,102713.47
2023-04-17T09:13:52.147Z,102711.97
2023-04-17T09:16:21.525Z,102713.28
2023-04-17T09:18:49.726Z,102708.47
2023-04-17T09:21:19.634Z,102713.50
2023-04-17T09:23:49.695Z,102712.84
2023-04-17T09:26:19.313Z,102718.28
2023-04-17T09:29:05.059Z,102715.16
2023-04-17T09:31:37.388Z,102724.59
2023-04-17T09:34:07.548Z,102721.72
2023-04-17T09:36:36.831Z,102721.38
2023-04-17T09:39:06.537Z,102729.00
2023-04-17T09:41:36.334Z,102722.69
2023-04-17T09:44:06.387Z,102725.69
2023-04-17T09:46:38.181Z,102734.84
2023-04-17T09:49:10.986Z,102714.09
2023-04-17T09:51:39.184Z,102733.22
2023-04-17T09:54:07.878Z,102719.41
2023-04-17T09:56:37.804Z,102729.91
2023-04-17T09:59:06.812Z,102729.34
2023-04-17T10:01:38.325Z,102733.91
2023-04-17T10:04:06.874Z,102734.72
2023-04-17T10:06:36.658Z,102737.41
2023-04-17T10:09:05.774Z,102736.13
2023-04-17T10:11:37.349Z,102742.47
2023-04-17T10:14:11.831Z,102732.91
2023-04-17T10:16:43.549Z,102736.91
2023-04-17T10:19:31.683Z,102743.59
2023-04-17T10:22:31.037Z,102741.94
2023-04-17T10:25:18.445Z,102737.31
2023-04-17T10:27:48.711Z,102739.41
2023-04-17T10:30:17.246Z,102748.56
2023-04-17T10:32:47.989Z,102748.94
2023-04-17T10:35:34.989Z,102740.78
2023-04-17T10:38:05.090Z,102743.00
2023-04-17T10:40:34.383Z,102747.56
2023-04-17T10:43:12.310Z,102741.47
2023-04-17T10:46:13.594Z,102749.53
2023-04-17T10:48:49.761Z,102762.66
2023-04-17T10:51:44.646Z,102746.00
2023-04-17T10:54:15.379Z,102746.00
2023-04-17T10:56:46.098Z,102745.53
2023-04-17T10:59:15.135Z,102748.16
2023-04-17T11:02:00.560Z,102752.25
2023-04-17T11:04:31.855Z,102746.59
2023-04-17T11:06:59.635Z,102749.94
2023-04-17T11:09:29.351Z,102745.97
2023-04-17T11:12:01.404Z,102747.28
2023-04-17T11:14:30.295Z,102763.19
2023-04-17T11:16:58.396Z,102765.47
2023-04-17T11:19:27.068Z,102775.44
2023-04-17T11:21:58.829Z,102775.88
2023-04-17T11:24:27.754Z,102768.16
2023-04-17T11:26:58.337Z,102774.13
2023-04-17T11:29:26.410Z,102784.41
2023-04-17T11:31:55.484Z,102778.69
2023-04-17T11:34:23.761Z,102779.31
2023-04-17T11:36:51.943Z,102771.34
2023-04-17T11:39:22.554Z,102775.50
2023-04-17T11:41:52.350Z,102792.22
2023-04-17T11:44:21.149Z,102785.31
2023-04-17T11:46:50.999Z,102787.72
2023-04-17T11:49:25.469Z,102787.00
2023-04-17T11:51:53.411Z,102787.84
2023-04-17T11:54:27.458Z,102771.66
2023-04-17T11:57:03.007Z,102787.59
2023-04-17T11:59:32.019Z,102784.72
2023-04-17T12:02:01.814Z,102789.44
2023-04-17T12:04:33.519Z,102780.50
2023-04-17T12:07:01.932Z,102779.69
2023-04-17T12:09:32.288Z,102800.75
2023-04-17T12:12:01.286Z,102797.13
2023-04-17T12:14:29.012Z,102792.53
2023-04-17T12:16:56.759Z,102795.47
2023-04-17T12:19:26.666Z,102788.94
2023-04-17T12:21:55.583Z,102776.75
2023-04-17T12:24:24.973Z,102785.16
2023-04-17T12:26:54.540Z,102787.94
2023-04-17T12:29:36.205Z,102790.34
2023-04-17T12:32:10.808Z,102793.75
2023-04-17T12:34:38.773Z,102796.25
2023-04-17T12:37:06.573Z,102780.88
2023-04-17T12:39:34.503Z,102785.44
2023-04-17T12:42:03.580Z,102786.72
2023-04-17T12:44:31.308Z,102796.56
2023-04-17T12:46:59.083Z,102806.94
2023-04-17T12:49:26.866Z,102812.00
2023-04-17T12:51:54.579Z,102800.69
2023-04-17T12:54:22.278Z,102810.72
2023-04-17T12:56:50.015Z,102809.66
2023-04-17T12:59:19.122Z,102819.88
2023-04-17T13:01:46.852Z,102797.16
2023-04-17T13:04:15.076Z,102790.44
2023-04-17T13:06:43.145Z,102796.97
2023-04-17T13:09:11.412Z,102808.63
2023-04-17T13:11:39.351Z,102816.03
2023-04-17T13:14:07.435Z,102806.97
2023-04-17T13:16:36.590Z,102786.38
2023-04-17T13:19:04.356Z,102794.72
2023-04-17T13:21:32.049Z,102797.47
2023-04-17T13:23:59.737Z,102796.81
2023-04-17T13:26:27.529Z,102801.03
2023-04-17T13:28:55.286Z,102801.34
2023-04-17T13:31:24.559Z,102807.31
2023-04-17T13:33:53.730Z,102808.38
2023-04-17T13:36:21.446Z,102810.25
2023-04-17T13:38:49.168Z,102807.34
2023-04-17T13:41:16.896Z,102798.69
2023-04-17T13:43:44.606Z,102804.06
2023-04-17T13:46:16.003Z,102802.13
2023-04-17T13:48:43.926Z,102791.28
2023-04-17T13:51:13.028Z,102792.09
2023-04-17T13:53:40.787Z,102796.75
2023-04-17T13:56:08.802Z,102792.47
2023-04-17T13:58:36.548Z,102793.38
2023-04-17T14:01:04.272Z,102786.19
2023-04-17T14:03:32.107Z,102789.81
2023-04-17T14:05:59.909Z,102796.06
2023-04-17T14:08:28.940Z,102793.63
2023-04-17T14:10:56.644Z,102789.31
2023-04-17T14:13:24.368Z,102793.16
2023-04-17T14:15:53.764Z,102786.75
2023-04-17T14:18:22.054Z,102795.16
2023-04-17T14:20:52.461Z,102792.66
2023-04-17T14:23:20.596Z,102784.47
2023-04-17T14:25:49.643Z,102778.09
2023-04-17T14:28:18.412Z,102797.84
2023-04-17T14:30:46.142Z,102781.72
2023-04-17T14:33:13.905Z,102778.47
2023-04-17T14:35:41.689Z,102784.25
2023-04-17T14:38:09.404Z,102782.97
2023-04-17T14:40:37.113Z,102775.97
2023-04-17T14:43:06.194Z,102775.44
2023-04-17T14:45:34.576Z,102768.44
2023-04-17T14:48:02.390Z,102770.06
2023-04-17T14:50:30.251Z,102771.50
2023-04-17T14:52:57.988Z,102783.97
2023-04-17T14:55:25.924Z,102785.97
2023-04-17T14:57:53.755Z,102796.09
2023-04-17T15:00:23.337Z,102780.19
2023-04-17T15:02:51.197Z,102793.84
2023-04-17T15:05:20.870Z,102792.75
2023-04-17T15:07:48.779Z,102785.53
2023-04-17T15:10:16.784Z,102798.34
2023-04-17T15:12:44.991Z,102803.56
2023-04-17T15:15:13.245Z,102808.16
2023-04-17T15:17:42.670Z,102813.78
2023-04-17T15:20:10.834Z,102810.41
2023-04-17T15:22:38.565Z,102814.88
2023-04-17T15:25:07.388Z,102816.56
2023-04-17T15:27:35.333Z,102812.75
2023-04-17T15:30:04.941Z,102822.69
2023-04-17T15:32:32.684Z,102811.03
2023-04-17T15:35:03.008Z,102816.19
2023-04-17T15:37:30.773Z,102806.38
2023-04-17T15:39:58.723Z,102806.28
2023-04-17T15:42:27.156Z,102805.03
2023-04-17T15:44:55.432Z,102804.97
2023-04-17T15:47:23.208Z,102800.31
2023-04-17T15:49:50.948Z,102804.91
2023-04-17T15:52:20.048Z,102819.28
2023-04-17T15:54:47.750Z,102801.59
2023-04-17T15:57:15.514Z,102811.84
2023-04-17T15:59:43.239Z,102814.78
2023-04-17T16:02:12.168Z,102811.56
2023-04-17T16:04:40.500Z,102807.44
2023-04-17T16:07:08.309Z,102813.25
2023-04-17T16:09:37.358Z,102820.38
2023-04-17T16:12:08.546Z,102821.53
2023-04-17T16:14:36.750Z,102827.25
2023-04-17T16:17:04.830Z,102818.41
2023-04-17T16:19:32.770Z,102817.56
2023-04-17T16:22:00.732Z,102815.03
2023-04-17T16:24:28.908Z,102822.25
2023-04-17T16:26:58.669Z,102827.38
2023-04-17T16:29:26.820Z,102824.22
2023-04-17T16:31:55.869Z,102820.50
2023-04-17T16:34:23.797Z,102829.13
2023-04-17T16:36:51.683Z,102836.00
2023-04-17T16:39:19.363Z,102833.75
2023-04-17T16:41:47.094Z,102831.47
2023-04-17T16:44:16.344Z,102830.13
2023-04-17T16:46:59.230Z,102824.38
2023-04-17T16:49:32.389Z,102831.13
2023-04-17T16:52:00.199Z,102825.72
2023-04-17T16:54:27.983Z,102825.66
2023-04-17T16:56:55.818Z,102802.94
2023-04-17T16:59:24.902Z,102808.94
2023-04-17T17:01:52.743Z,102822.69
2023-04-17T17:04:20.542Z,102820.94
2023-04-17T17:06:48.253Z,102825.56
2023-04-17T17:09:16.010Z,102818.03
2023-04-17T17:11:43.725Z,102835.88
2023-04-17T17:14:11.450Z,102831.88
2023-04-17T17:16:41.442Z,102828.16
2023-04-17T17:19:09.277Z,102821.69
2023-04-17T17:21:37.028Z,102828.91
2023-04-17T17:24:05.177Z,102822.25
2023-04-17T17:26:32.983Z,102833.56
2023-04-17T17:29:00.756Z,102857.09
2023-04-17T17:31:28.877Z,102846.31
2023-04-17T17:34:11.930Z,102828.69
2023-04-17T17:36:50.068Z,102840.72
2023-04-17T17:39:17.781Z,102840.44
2023-04-17T17:41:47.406Z,102837.88
2023-04-17T17:44:15.478Z,102839.09
2023-04-17T17:46:43.326Z,102843.16
2023-04-17T17:49:12.411Z,102843.56
2023-04-17T17:51:40.118Z,102848.53
2023-04-17T17:54:08.025Z,102831.44
2023-04-17T17:56:35.849Z,102842.25
2023-04-17T17:59:03.534Z,102848.38
2023-04-17T18:01:31.295Z,102843.94
2023-04-17T18:03:59.127Z,102842.97
2023-04-17T18:06:28.500Z,102849.81
2023-04-17T18:08:57.893Z,102863.94
2023-04-17T18:11:25.780Z,102864.69
2023-04-17T18:13:53.566Z,102856.41
2023-04-17T18:16:21.545Z,102858.06
2023-04-17T18:18:49.312Z,102873.47
2023-04-17T18:21:17.205Z,102864.97
2023-04-17T18:23:46.301Z,102854.44
2023-04-17T18:26:13.965Z,102856.31
2023-04-17T18:28:42.526Z,102864.84
2023-04-17T18:31:10.727Z,102855.38
2023-04-17T18:33:38.511Z,102864.44
2023-04-17T18:36:06.675Z,102856.09
2023-04-17T18:38:34.820Z,102865.41
2023-04-17T18:41:04.534Z,102873.88
2023-04-17T18:43:32.400Z,102876.47
2023-04-17T18:46:04.248Z,102878.03
2023-04-17T18:48:32.083Z,102879.75
2023-04-17T18:51:09.443Z,102878.75
2023-04-17T18:53:37.200Z,102884.84
2023-04-17T18:56:06.666Z,102887.50
2023-04-17T18:58:34.373Z,102885.88
2023-04-17T19:01:02.137Z,102898.03
2023-04-17T19:03:29.938Z,102894.69
2023-04-17T19:05:57.701Z,102881.16
2023-04-17T19:08:25.804Z,102871.78
2023-04-17T19:10:53.541Z,102874.19
2023-04-17T19:13:22.686Z,102871.59
2023-04-17T19:15:50.477Z,102872.94
2023-04-17T19:18:18.450Z,102870.09
2023-04-17T19:20:46.255Z,102873.06
2023-04-17T19:23:14.006Z,102861.09
2023-04-17T19:25:42.969Z,102856.78
2023-04-17T19:28:11.405Z,102856.47
2023-04-17T19:30:40.683Z,102851.25
2023-04-17T19:33:08.788Z,102834.19
2023-04-17T19:35:36.594Z,102857.13
2023-04-17T19:38:04.353Z,102855.44
2023-04-17T19:40:32.144Z,102849.09
2023-04-17T19:43:01.357Z,102834.00
2023-04-17T19:45:29.216Z,102835.75
2023-04-17T19:47:58.349Z,102843.13
2023-04-17T19:50:27.485Z,102848.00
2023-04-17T19:52:56.156Z,102843.69
2023-04-17T19:55:23.992Z,102837.28
2023-04-17T19:57:52.209Z,102843.06
2023-04-17T20:00:20.485Z,102835.56
2023-04-17T20:02:48.324Z,102835.56
2023-04-17T20:05:18.437Z,102844.81
2023-04-17T20:07:46.196Z,102840.00
2023-04-17T20:10:13.976Z,102843.19
2023-04-17T20:12:41.660Z,102845.66
2023-04-17T20:15:10.755Z,102836.97
2023-04-17T20:17:38.598Z,102844.50
2023-04-17T20:20:07.694Z,102848.66
2023-04-17T20:22:36.893Z,102868.63
2023-04-17T20:25:05.134Z,102873.75
2023-04-17T20:27:32.881Z,102865.84
2023-04-17T20:30:00.642Z,102858.97
2023-04-17T20:32:28.399Z,102876.09
2023-04-17T20:34:56.137Z,102869.72
2023-04-17T20:37:24.091Z,102850.53
2023-04-17T20:39:53.214Z,102849.25
2023-04-17T20:42:20.926Z,102862.38
2023-04-17T20:44:49.480Z,102850.41
2023-04-17T20:47:17.220Z,102845.59
2023-04-17T20:49:44.925Z,102871.78
2023-04-17T20:52:12.642Z,102871.78
2023-04-17T20:54:40.404Z,102875.56
2023-04-17T20:57:09.528Z,102854.97
2023-04-17T20:59:37.527Z,102856.94
2023-04-17T21:02:05.421Z,102849.50
2023-04-17T21:04:33.272Z,102860.22
2023-04-17T21:07:01.168Z,102866.81
2023-04-17T21:09:28.947Z,102874.69
2023-04-17T21:11:56.675Z,102863.25
2023-04-17T21:14:25.831Z,102835.97
2023-04-17T21:16:56.394Z,102853.53
2023-04-17T21:19:25.945Z,102841.22
2023-04-17T21:21:53.682Z,102835.16
2023-04-17T21:24:21.647Z,102828.03
2023-04-17T21:26:49.459Z,102821.88
2023-04-17T21:29:17.451Z,102801.47
2023-04-17T21:31:46.615Z,102778.09
2023-04-17T21:34:14.571Z,102756.53
2023-04-17T21:36:42.502Z,102771.59
2023-04-17T21:39:10.483Z,102767.16
2023-04-17T21:41:38.470Z,102772.75
2023-04-17T21:44:06.218Z,102780.56
2023-04-17T21:46:34.041Z,102791.88
2023-04-17T21:49:03.130Z,102766.44
2023-04-17T21:51:31.505Z,102784.47
2023-04-17T21:53:59.354Z,102767.78
2023-04-17T21:56:27.780Z,102752.97
2023-04-17T21:58:55.777Z,102726.84
2023-04-17T22:01:23.557Z,102713.16
2023-04-17T22:03:51.395Z,102701.53
2023-04-17T22:06:20.491Z,102684.00
2023-04-17T22:08:48.220Z,102709.88
2023-04-17T22:11:15.959Z,102692.09
2023-04-17T22:13:44.957Z,102709.72
2023-04-17T22:16:12.831Z,102675.06
2023-04-17T22:18:40.566Z,102684.09
2023-04-17T22:21:08.598Z,102688.44
2023-04-17T22:23:37.714Z,102665.59
2023-04-17T22:26:05.704Z,102681.97
2023-04-17T22:28:33.439Z,102696.28
2023-04-17T22:31:01.224Z,102682.56
2023-04-17T22:33:29.000Z,102673.84
2023-04-17T22:35:56.774Z,102678.84
2023-04-17T22:38:24.485Z,102661.88
2023-04-17T22:40:55.934Z,102653.97
2023-04-17T22:43:23.637Z,102644.72
2023-04-17T22:45:51.408Z,102629.47
2023-04-17T22:48:19.338Z,102625.59
2023-04-17T22:50:47.254Z,102621.72
2023-04-17T22:53:14.967Z,102623.97
2023-04-17T22:55:42.749Z,102613.09
2023-04-17T22:58:11.876Z,102605.59
2023-04-17T23:00:39.604Z,102631.19
2023-04-17T23:03:07.458Z,102664.94
2023-04-17T23:05:35.328Z,102663.41
2023-04-17T23:08:03.069Z,102679.22
2023-04-17T23:10:30.780Z,102655.84
2023-04-17T23:12:58.452Z,102649.28
2023-04-17T23:15:27.601Z,102659.53
2023-04-17T23:17:55.536Z,102668.06
2023-04-17T23:20:24.877Z,102671.50
2023-04-17T23:22:52.997Z,102666.50
2023-04-17T23:25:20.737Z,102657.03
2023-04-17T23:27:48.476Z,102681.13
2023-04-17T23:30:16.351Z,102676.31
2023-04-17T23:32:45.891Z,102652.75
2023-04-17T23:35:13.650Z,102666.00
2023-04-17T23:37:41.425Z,102641.09
2023-04-17T23:40:10.334Z,102642.34
2023-04-17T23:42:38.016Z,102647.84
2023-04-17T23:45:06.715Z,102632.25
2023-04-17T23:47:34.573Z,102615.28
2023-04-17T23:50:05.322Z,102602.41
2023-04-17T23:52:33.152Z,102610.56
2023-04-17T23:55:01.629Z,102617.13
2023-04-17T23:57:29.699Z,102594.81
2023-04-17T23:59:57.408Z,102601.25
